PWSweather.com
Personal Weather Stations
Station Observations
ON7DKEWX
Knokke Heist, Knokke HeistBE 8300

Knokke HeistKnokke HeistBE 8300

Lat: 51.32199, Lon: 3.28778

Elevation: 5

Station Type: Davis Vantage Pro 2

www.weerstationheist.be

High Low Average
Temperature 66.3°F19.1°C 53.2°F11.8°C 60.9°F16.1°C
Dew Point 60.0°F15.6°C 49.4°F9.7°C 55.4°F13.0°C
Winds 5.8 mph 9.3 kmh Calm Calm 3.0 mph WSW4.8 kmh WSW
Wind Gusts 11.5 mph18.5 kmh -- 5.0 mph8.0 kmh
Humidity 90% 71% 82%
Pressure 30.02 in1016.6 mb 29.90 in1012.5 mb -
Precipitation 0.00 in0.0 mm - -
Hour Temp Dew Point Humidity Winds Wind Gusts Pressure Precip Precip Rate Daily Precip Total
12:00 AM 57.1°F13.9°C 51.3°F10.7°C 81% Calm Calm -- 30.02 in1016.6 mb - 0.00 in0.0 mm 0.00 in0.0 mm
01:00 AM 55.4°F13.0°C 50.7°F10.4°C 84% 1.2 mph N1.9 kmh N 2.3 mph3.7 kmh 30.01 in1016.3 mb - 0.00 in0.0 mm 0.00 in0.0 mm
02:00 AM 54.3°F12.4°C 50.5°F10.3°C 87% Calm Calm -- 30.00 in1015.9 mb - 0.00 in0.0 mm 0.00 in0.0 mm
03:00 AM 53.6°F12.0°C 50.2°F10.1°C 88% Calm Calm -- 29.98 in1015.2 mb - 0.00 in0.0 mm 0.00 in0.0 mm
04:00 AM 53.2°F11.8°C 49.7°F9.8°C 88% 2.3 mph S3.7 kmh S 4.6 mph7.4 kmh 29.96 in1014.6 mb - 0.00 in0.0 mm 0.00 in0.0 mm
05:00 AM 53.2°F11.8°C 49.4°F9.7°C 87% 4.6 mph SSE7.4 kmh SSE 6.9 mph11.1 kmh 29.95 in1014.2 mb - 0.00 in0.0 mm 0.00 in0.0 mm
06:00 AM 55.0°F12.8°C 50.6°F10.3°C 85% 4.6 mph SE7.4 kmh SE 8.1 mph13.0 kmh 29.94 in1013.9 mb - 0.00 in0.0 mm 0.00 in0.0 mm
07:00 AM 59.4°F15.2°C 53.2°F11.8°C 80% 3.5 mph SE5.6 kmh SE 5.8 mph9.3 kmh 29.93 in1013.5 mb - 0.00 in0.0 mm 0.00 in0.0 mm
08:00 AM 62.7°F17.1°C 55.0°F12.8°C 76% 4.6 mph SE7.4 kmh SE 8.1 mph13.0 kmh 29.91 in1012.9 mb - 0.00 in0.0 mm 0.00 in0.0 mm
09:00 AM 65.2°F18.4°C 55.6°F13.1°C 71% 3.5 mph SSE5.6 kmh SSE 5.8 mph9.3 kmh 29.91 in1012.9 mb - 0.00 in0.0 mm 0.00 in0.0 mm
10:00 AM 65.4°F18.6°C 57.3°F14.1°C 75% 3.5 mph SSE5.6 kmh SSE 10.4 mph16.7 kmh 29.91 in1012.9 mb - 0.00 in0.0 mm 0.00 in0.0 mm
11:00 AM 65.1°F18.4°C 56.6°F13.7°C 74% 3.5 mph S5.6 kmh S 8.1 mph13.0 kmh 29.91 in1012.9 mb - 0.00 in0.0 mm 0.00 in0.0 mm
12:00 PM 64.9°F18.3°C 57.2°F14.0°C 76% 3.5 mph SSE5.6 kmh SSE 10.4 mph16.7 kmh 29.90 in1012.5 mb - 0.00 in0.0 mm 0.00 in0.0 mm
01:00 PM 66.3°F19.1°C 57.8°F14.3°C 74% 2.3 mph S3.7 kmh S 9.2 mph14.8 kmh 29.91 in1012.9 mb - 0.00 in0.0 mm 0.00 in0.0 mm
02:00 PM 65.4°F18.6°C 56.5°F13.6°C 73% 4.6 mph S7.4 kmh S 5.8 mph9.3 kmh 29.91 in1012.9 mb - 0.00 in0.0 mm 0.00 in0.0 mm
03:00 PM 64.9°F18.3°C 59.3°F15.2°C 82% 3.5 mph NNW5.6 kmh NNW 8.1 mph13.0 kmh 29.91 in1012.9 mb - 0.00 in0.0 mm 0.00 in0.0 mm
04:00 PM 63.1°F17.3°C 59.5°F15.3°C 88% 2.3 mph SSW3.7 kmh SSW 3.5 mph5.6 kmh 29.93 in1013.5 mb - 0.00 in0.0 mm 0.00 in0.0 mm
05:00 PM 63.0°F17.2°C 60.0°F15.6°C 90% 5.8 mph N9.3 kmh N 11.5 mph18.5 kmh 29.93 in1013.5 mb - 0.00 in0.0 mm 0.00 in0.0 mm
06:00 PM 63.3°F17.4°C 59.7°F15.4°C 88% 3.5 mph N5.6 kmh N 4.6 mph7.4 kmh 29.93 in1013.5 mb - 0.00 in0.0 mm 0.00 in0.0 mm
07:00 PM 63.8°F17.7°C 59.9°F15.5°C 87% 4.6 mph SSW7.4 kmh SSW 5.8 mph9.3 kmh 29.93 in1013.5 mb - 0.00 in0.0 mm 0.00 in0.0 mm
08:00 PM 64.1°F17.8°C 59.2°F15.1°C 84% 2.3 mph N3.7 kmh N 1.2 mph1.9 kmh 29.95 in1014.2 mb - 0.00 in0.0 mm 0.00 in0.0 mm
09:00 PM 62.7°F17.1°C 58.1°F14.5°C 85% 1.2 mph N1.9 kmh N 3.5 mph5.6 kmh 29.96 in1014.6 mb - 0.00 in0.0 mm 0.00 in0.0 mm
10:00 PM 61.3°F16.3°C 57.4°F14.1°C 87% 1.2 mph SSW1.9 kmh SSW 4.6 mph7.4 kmh 29.98 in1015.2 mb - 0.00 in0.0 mm 0.00 in0.0 mm
11:00 PM 60.0°F15.6°C 55.8°F13.2°C 86% Calm Calm -- 29.99 in1015.6 mb - 0.00 in0.0 mm 0.00 in0.0 mm